Relevés horaires Bouveret (Suisse)


Relevés horaires à Bouveret - Jeudi 16 Avr. 2015
Heure UTC1 Température [°C] Vent [km/h] Hum. [%] Pres.4 [hPa] Visi. [Km] Nébu. [octa] Préc.5 [mm] Cond.
2m. Res. Ros. Dir.2 Vit. Moy. Raf.3
23:00 12.5 12.1 11.0 ONO 7.4 11.1 13.0 91 1016(0.2/3h) -- -- -- --
22:00 12.6 12.6 10.0 SSE 3.7 5.6 9.3 84 1015.6(0.1/3h) -- -- -- --
21:00 12.6 12.6 9.3 SE 3.7 16.7 20.4 80 1015.8(0.8/3h) -- -- -- --
20:00 13.0 13.0 9.8 NNO 1.9 5.6 9.3 81 1015.7(0.9/3h) -- -- -- --
19:00 12.9 12.2 10.0 NNE 9.3 16.7 20.4 83 1015.5(-1.1/3h) -- -- -- --
18:00 13.9 12.7 9.2 O 14.8 25.9 35.2 73 1014.8(-2.8/3h) -- -- -- --
17:00 12.9 12.5 9.5 OSO 7.4 20.4 35.2 80 1014.7(-2.0/3h) -- -- -- --
16:00 12.7 12.7 9.7 S 5.6 7.4 9.3 82 1016.7(-0.7/3h) -- -- -- --
15:00 13.1 12.4 9.2 NNO 9.3 14.8 29.6 77 1017.8(-0.9/3h) -- -- -- --
14:00 14.0 12.9 6.9 O 14.8 14.8 29.6 62 1016.7(-1.7/3h) -- -- -- --
13:00 13.7 13.7 5.2 NO 5.6 5.6 11.1 56 1017.2(-0.8/3h) -- -- -- --
12:00 13.0 13 7.1 E 5.6 11.1 16.7 67 1018.8(0.7/3h) -- -- -- --
11:00 13.1 12.2 8.2 ONO 11.1 11.1 16.7 72 1018.6(0.9/3h) -- -- -- --
10:00 12.7 12.7 9.1 NO 5.6 11.1 13.0 79 1018.2(0.1/3h) -- -- -- --
09:00 12.8 12.1 8.8 ONO 9.3 11.1 13.0 77 1018.1 -- -- -- --
08:00 14.2 14.2 2.3 NO 3.7 5.6 7.4 45 1017.5(0.3/3h) -- -- -- --
07:00 13.0 13 4.2 SSE 5.6 5.6 9.3 55 1018.1(0.4/3h) -- -- -- --
06:00 12.4 12.4 4.2 NNO 0.0 7.4 13.0 57 1018(-0.1/3h) -- -- -- --
05:00 12.6 12.6 1.8 SSE 3.7 5.6 11.1 48 1017.4(-0.9/3h) -- -- -- --
04:00 11.2 11.2 4.3 SSE 3.7 7.4 11.1 62 1017.9(-0.4/3h) -- -- -- --
03:00 11.4 11.4 6.5 SE 1.9 5.6 7.4 72 1018.2(-0.4/3h) -- -- -- --
02:00 12.3 12.3 5.4 SO 3.7 5.6 7.4 63 1018.4(0.0/3h) -- -- -- --
01:00 13.0 13.0 5.4 SE 1.9 5.6 7.4 60 1018.1(-0.3/3h) -- -- -- --
00:00 13.2 13.2 6.0 S 3.7 16.7 24.1 62 1018.4(0.1/3h) -- -- -- --

1 Coordinated Universal Time. Actuellement il est 11:00 locale et 09:00 UTC.

2 Le vent souffle depuis la direction indiquée vers la direction oposée.

3 Les rafales max. sont disponible 40 min après l'heure du relevé.

4 Pour les stations d'altitude (plus de 600m) le géopotentiel du niveau le plus proche de la pression obligatoire est indiqué.

5 Les stations disposant d'un diffuseur peuvent indiquer "trace". Cela signifie que des précipitations ont touchés le sol mais que la quantité est inférieure à 0.1 mm.

Copyright

Les données affichées sur cette page sont la propriété exclusive de Météo Suisse.

Récapitulatif de la journée
Température [°C] Vent [km/h] Ensoleillement4 [h] Precipitations totale5 [mm] Pression [Hpa]
Min1 Max.2 Moy.3 Max. Min Max.
10.8 14.2 10.6 35.2 0 h 0 min 0 1014.7 1018.8

1 Température minimale relevée entre 18:00 UTC la veille et 18:00 UTC le jour donné.

2 Température maximale relevée entre 06:00 UTC le jour donné et 06:00 UTC le lendemain.

3 Vent moyen de la journée basé sur les relevés horaires.

4 Ensoleillement en heures relevé entre 06:00 UTC la veille et 06:00 UTC le jour donné.

5 Précipitations totales tombées entre 06:00 UTC la jour donné et 06:00 UTC le lendemain.

Graphiques horaires